createdAt,value
2022-09-01T00:01:49.513Z,100.00
2022-09-01T00:04:20.257Z,100.00
2022-09-01T00:06:48.245Z,100.00
2022-09-01T00:09:19.149Z,100.00
2022-09-01T00:11:50.706Z,100.00
2022-09-01T00:14:29.907Z,100.00
2022-09-01T00:17:03.665Z,100.00
2022-09-01T00:19:30.650Z,100.00
2022-09-01T00:21:57.649Z,100.00
2022-09-01T00:24:26.117Z,100.00
2022-09-01T00:26:53.691Z,100.00
2022-09-01T00:29:20.711Z,100.00
2022-09-01T00:31:47.912Z,100.00
2022-09-01T00:34:14.658Z,100.00
2022-09-01T00:36:41.117Z,100.00
2022-09-01T00:39:08.118Z,100.00
2022-09-01T00:41:38.307Z,100.00
2022-09-01T00:44:12.125Z,100.00
2022-09-01T00:46:47.590Z,100.00
2022-09-01T00:49:22.343Z,100.00
2022-09-01T00:51:53.389Z,100.00
2022-09-01T00:54:24.415Z,100.00
2022-09-01T00:56:57.377Z,100.00
2022-09-01T00:59:26.178Z,100.00
2022-09-01T01:01:53.409Z,100.00
2022-09-01T01:04:20.667Z,100.00
2022-09-01T01:07:01.790Z,100.00
2022-09-01T01:09:32.867Z,100.00
2022-09-01T01:12:00.564Z,100.00
2022-09-01T01:14:32.299Z,100.00
2022-09-01T01:17:00.656Z,100.00
2022-09-01T01:20:05.036Z,100.00
2022-09-01T01:23:10.150Z,100.00
2022-09-01T01:25:57.349Z,100.00
2022-09-01T01:28:33.937Z,100.00
2022-09-01T01:31:20.400Z,100.00
2022-09-01T01:33:50.374Z,100.00
2022-09-01T01:36:21.550Z,100.00
2022-09-01T01:38:49.561Z,100.00
2022-09-01T01:41:19.595Z,100.00
2022-09-01T01:43:48.246Z,100.00
2022-09-01T01:46:18.984Z,100.00
2022-09-01T01:48:47.087Z,100.00
2022-09-01T01:51:13.890Z,100.00
2022-09-01T01:53:40.972Z,100.00
2022-09-01T01:56:08.991Z,100.00
2022-09-01T01:58:35.918Z,100.00
2022-09-01T02:01:03.543Z,100.00
2022-09-01T02:03:38.421Z,100.00
2022-09-01T02:06:11.845Z,100.00
2022-09-01T02:08:40.673Z,100.00
2022-09-01T02:11:07.995Z,100.00
2022-09-01T02:13:35.185Z,100.00
2022-09-01T02:16:07.600Z,100.00
2022-09-01T02:18:37.167Z,100.00
2022-09-01T02:21:10.569Z,100.00
2022-09-01T02:23:40.956Z,100.00
2022-09-01T02:26:18.155Z,100.00
2022-09-01T02:28:54.805Z,100.00
2022-09-01T02:31:23.706Z,100.00
2022-09-01T02:33:50.645Z,100.00
2022-09-01T02:36:19.508Z,100.00
2022-09-01T02:38:53.051Z,100.00
2022-09-01T02:41:23.635Z,100.00
2022-09-01T02:43:50.383Z,100.00
2022-09-01T02:46:17.501Z,100.00
2022-09-01T02:48:46.087Z,100.00
2022-09-01T02:51:15.800Z,100.00
2022-09-01T02:53:44.136Z,100.00
2022-09-01T02:56:14.318Z,100.00
2022-09-01T02:58:46.209Z,100.00
2022-09-01T03:01:21.424Z,100.00
2022-09-01T03:03:53.741Z,100.00
2022-09-01T03:06:20.965Z,100.00
2022-09-01T03:08:48.308Z,100.00
2022-09-01T03:11:15.024Z,100.00
2022-09-01T03:13:42.000Z,100.00
2022-09-01T03:16:09.549Z,100.00
2022-09-01T03:18:37.458Z,100.00
2022-09-01T03:21:05.174Z,100.00
2022-09-01T03:23:33.918Z,100.00
2022-09-01T03:26:01.299Z,100.00
2022-09-01T03:28:28.824Z,100.00
2022-09-01T03:30:57.392Z,100.00
2022-09-01T03:33:25.320Z,100.00
2022-09-01T03:35:52.637Z,100.00
2022-09-01T03:38:24.160Z,100.00
2022-09-01T03:40:54.720Z,100.00
2022-09-01T03:43:24.912Z,100.00
2022-09-01T03:45:51.429Z,100.00
2022-09-01T03:48:18.859Z,100.00
2022-09-01T03:50:46.302Z,100.00
2022-09-01T03:53:19.449Z,100.00
2022-09-01T03:55:47.411Z,100.00
2022-09-01T03:58:18.983Z,100.00
2022-09-01T04:00:49.972Z,100.00
2022-09-01T04:03:29.156Z,100.00
2022-09-01T04:05:59.351Z,100.00
2022-09-01T04:08:32.489Z,100.00
2022-09-01T04:11:03.698Z,100.00
2022-09-01T04:13:35.610Z,100.00
2022-09-01T04:16:02.769Z,100.00
2022-09-01T04:18:30.524Z,100.00
2022-09-01T04:20:59.488Z,100.00
2022-09-01T04:23:33.551Z,100.00
2022-09-01T04:26:09.345Z,100.00
2022-09-01T04:28:49.441Z,100.00
2022-09-01T04:31:19.368Z,100.00
2022-09-01T04:33:49.470Z,100.00
2022-09-01T04:36:25.282Z,100.00
2022-09-01T04:38:54.985Z,100.00
2022-09-01T04:41:27.348Z,100.00
2022-09-01T04:43:57.756Z,100.00
2022-09-01T04:46:28.373Z,100.00
2022-09-01T04:48:55.780Z,100.00
2022-09-01T04:51:22.359Z,100.00
2022-09-01T04:53:48.930Z,100.00
2022-09-01T04:56:23.039Z,100.00
2022-09-01T04:58:50.579Z,100.00
2022-09-01T05:01:20.718Z,100.00
2022-09-01T05:03:57.324Z,100.00
2022-09-01T05:06:23.703Z,100.00
2022-09-01T05:08:50.655Z,100.00
2022-09-01T05:11:17.815Z,100.00
2022-09-01T05:13:47.975Z,100.00
2022-09-01T05:16:24.091Z,100.00
2022-09-01T05:18:54.161Z,100.00
2022-09-01T05:21:24.676Z,100.00
2022-09-01T05:23:51.855Z,100.00
2022-09-01T05:26:22.047Z,100.00
2022-09-01T05:28:50.728Z,100.00
2022-09-01T05:31:20.150Z,100.00
2022-09-01T05:33:48.337Z,100.00
2022-09-01T05:36:17.983Z,100.00
2022-09-01T05:38:45.392Z,100.00
2022-09-01T05:41:16.853Z,100.00
2022-09-01T05:43:48.998Z,100.00
2022-09-01T05:46:18.969Z,100.00
2022-09-01T05:48:49.439Z,100.00
2022-09-01T05:51:42.685Z,100.00
2022-09-01T05:54:08.115Z,100.00
2022-09-01T05:56:43.893Z,100.00
2022-09-01T05:59:27.095Z,100.00
2022-09-01T06:01:55.192Z,100.00
2022-09-01T06:04:22.917Z,100.00
2022-09-01T06:07:05.695Z,100.00
2022-09-01T06:09:39.489Z,100.00
2022-09-01T06:12:06.991Z,100.00
2022-09-01T06:14:34.202Z,100.00
2022-09-01T06:17:00.898Z,100.00
2022-09-01T06:19:27.345Z,100.00
2022-09-01T06:21:53.801Z,100.00
2022-09-01T06:24:20.419Z,100.00
2022-09-01T06:26:46.933Z,100.00
2022-09-01T06:29:15.498Z,100.00
2022-09-01T06:31:42.371Z,100.00
2022-09-01T06:34:17.646Z,100.00
2022-09-01T06:36:45.803Z,100.00
2022-09-01T06:39:19.634Z,100.00
2022-09-01T06:41:49.721Z,100.00
2022-09-01T06:44:22.217Z,100.00
2022-09-01T06:46:50.736Z,100.00
2022-09-01T06:49:17.759Z,100.00
2022-09-01T06:51:44.929Z,100.00
2022-09-01T06:54:14.189Z,100.00
2022-09-01T06:56:42.868Z,100.00
2022-09-01T06:59:15.466Z,100.00
2022-09-01T07:01:42.103Z,100.00
2022-09-01T07:07:53.108Z,100.00
2022-09-01T07:09:50.353Z,100.00
2022-09-01T07:12:31.988Z,100.00
2022-09-01T07:17:52.283Z,100.00
2022-09-01T07:23:08.487Z,100.00
2022-09-01T07:28:36.125Z,100.00
2022-09-01T07:33:55.744Z,100.00
2022-09-01T07:42:32.105Z,100.00
2022-09-01T07:45:27.360Z,100.00
2022-09-01T07:47:54.859Z,100.00
2022-09-01T07:53:09.243Z,100.00
2022-09-01T07:55:41.344Z,100.00
2022-09-01T07:58:10.169Z,100.00
2022-09-01T08:00:37.123Z,100.00
2022-09-01T08:03:03.967Z,100.00
2022-09-01T08:05:31.185Z,100.00
2022-09-01T08:07:58.077Z,100.00
2022-09-01T08:10:24.498Z,100.00
2022-09-01T08:12:58.983Z,100.00
2022-09-01T08:16:06.936Z,100.00
2022-09-01T08:18:14.742Z,100.00
2022-09-01T08:20:45.498Z,100.00
2022-09-01T08:23:15.725Z,100.00
2022-09-01T08:25:46.049Z,100.00
2022-09-01T08:28:14.818Z,100.00
2022-09-01T08:30:52.274Z,100.00
2022-09-01T08:33:19.332Z,100.00
2022-09-01T08:35:48.129Z,100.00
2022-09-01T08:38:15.460Z,100.00
2022-09-01T08:40:43.444Z,100.00
2022-09-01T08:43:31.879Z,90.33
2022-09-01T08:46:09.297Z,95.44
2022-09-01T08:51:54.108Z,90.78
2022-09-01T08:54:32.298Z,92.86
2022-09-01T08:57:08.014Z,86.07
2022-09-01T08:59:34.491Z,90.66
2022-09-01T09:02:16.469Z,87.30
2022-09-01T09:04:52.964Z,80.89
2022-09-01T09:07:50.203Z,81.49
2022-09-01T09:10:24.800Z,84.70
2022-09-01T09:13:17.376Z,76.77
2022-09-01T09:16:08.571Z,81.19
2022-09-01T09:18:56.129Z,76.67
2022-09-01T09:21:37.603Z,73.07
2022-09-01T09:24:16.569Z,76.56
2022-09-01T09:26:56.503Z,74.49
2022-09-01T09:29:23.423Z,75.08
2022-09-01T09:32:02.613Z,66.92
2022-09-01T09:34:41.159Z,72.28
2022-09-01T09:37:29.508Z,68.64
2022-09-01T09:40:09.896Z,68.51
2022-09-01T09:43:01.908Z,66.29
2022-09-01T09:45:42.058Z,65.71
2022-09-01T09:48:29.277Z,63.79
2022-09-01T09:50:55.958Z,67.26
2022-09-01T09:53:32.775Z,62.03
2022-09-01T09:56:20.096Z,61.08
2022-09-01T09:58:48.911Z,65.80
2022-09-01T10:01:24.306Z,64.36
2022-09-01T10:04:00.394Z,63.40
2022-09-01T10:06:41.023Z,63.85
2022-09-01T10:09:15.990Z,65.18
2022-09-01T10:11:48.916Z,66.03
2022-09-01T10:14:35.389Z,65.88
2022-09-01T10:17:15.296Z,64.33
2022-09-01T10:19:54.512Z,60.35
2022-09-01T10:22:23.320Z,61.69
2022-09-01T10:24:50.303Z,60.61
2022-09-01T10:27:24.768Z,58.71
2022-09-01T10:32:55.793Z,56.26
2022-09-01T10:35:34.242Z,54.13
2022-09-01T10:38:06.862Z,55.94
2022-09-01T10:40:43.740Z,55.72
2022-09-01T10:43:45.741Z,53.87
2022-09-01T10:46:26.391Z,51.86
2022-09-01T10:48:56.365Z,54.22
2022-09-01T10:51:35.903Z,53.34
2022-09-01T10:54:05.721Z,53.56
2022-09-01T10:56:51.893Z,52.67
2022-09-01T10:59:33.386Z,52.59
2022-09-01T11:02:28.117Z,51.42
2022-09-01T11:04:55.940Z,53.45
2022-09-01T11:07:38.954Z,53.25
2022-09-01T11:10:41.222Z,49.64
2022-09-01T11:13:36.803Z,51.08
2022-09-01T11:16:49.715Z,50.01
2022-09-01T11:19:44.139Z,48.88
2022-09-01T11:22:13.561Z,48.03
2022-09-01T11:24:40.336Z,48.34
2022-09-01T11:27:33.683Z,48.18
2022-09-01T11:30:07.330Z,46.59
2022-09-01T11:32:36.969Z,45.88
2022-09-01T11:35:07.533Z,46.33
2022-09-01T11:37:34.018Z,46.84
2022-09-01T11:40:03.581Z,46.66
2022-09-01T11:42:39.538Z,46.02
2022-09-01T11:45:15.476Z,46.66
2022-09-01T11:48:02.144Z,44.69
2022-09-01T11:50:34.017Z,43.88
2022-09-01T11:53:12.321Z,44.80
2022-09-01T11:55:50.525Z,43.50
2022-09-01T11:58:27.489Z,43.90
2022-09-01T12:00:56.409Z,43.37
2022-09-01T12:03:26.976Z,41.09
2022-09-01T12:06:00.285Z,41.37
2022-09-01T12:08:30.538Z,41.63
2022-09-01T12:11:05.981Z,40.04
2022-09-01T12:13:32.644Z,41.05
2022-09-01T12:16:17.949Z,40.22
2022-09-01T12:18:48.184Z,40.45
2022-09-01T12:21:56.005Z,37.61
2022-09-01T12:24:24.246Z,39.10
2022-09-01T12:26:54.604Z,39.18
2022-09-01T12:29:21.505Z,38.79
2022-09-01T12:31:50.425Z,38.44
2022-09-01T12:34:47.800Z,37.77
2022-09-01T12:37:24.326Z,38.21
2022-09-01T12:39:54.475Z,39.44
2022-09-01T12:42:30.031Z,39.35
2022-09-01T12:45:10.017Z,39.16
2022-09-01T12:47:36.725Z,38.83
2022-09-01T12:50:16.389Z,37.11
2022-09-01T12:52:52.656Z,36.97
2022-09-01T12:58:10.533Z,37.32
2022-09-01T13:00:56.074Z,35.98
2022-09-01T13:03:23.366Z,36.44
2022-09-01T13:05:52.920Z,35.70
2022-09-01T13:08:22.500Z,35.54
2022-09-01T13:10:53.297Z,35.28
2022-09-01T13:13:21.694Z,35.20
2022-09-01T13:15:54.399Z,35.06
2022-09-01T13:18:22.958Z,34.60
2022-09-01T13:20:51.115Z,33.93
2022-09-01T13:23:18.889Z,34.12
2022-09-01T13:25:46.678Z,33.64
2022-09-01T13:28:16.518Z,33.33
2022-09-01T13:31:28.466Z,31.80
2022-09-01T13:39:12.542Z,33.02
2022-09-01T13:41:39.359Z,33.18
2022-09-01T13:44:05.819Z,32.82
2022-09-01T13:46:32.443Z,32.90
2022-09-01T13:49:02.734Z,32.81
2022-09-01T13:51:29.566Z,32.88
2022-09-01T13:53:56.124Z,32.33
2022-09-01T13:56:22.574Z,32.62
2022-09-01T13:58:48.992Z,32.80
2022-09-01T14:01:15.857Z,32.50
2022-09-01T14:03:43.889Z,32.26
2022-09-01T14:06:10.485Z,32.07
2022-09-01T14:08:37.021Z,32.00
2022-09-01T14:11:04.863Z,31.77
2022-09-01T14:13:32.429Z,31.88
2022-09-01T14:15:58.926Z,32.03
2022-09-01T14:18:32.039Z,32.25
2022-09-01T14:21:01.248Z,32.49
2022-09-01T14:23:27.781Z,32.97
2022-09-01T14:25:54.721Z,33.31
2022-09-01T14:28:22.940Z,33.33
2022-09-01T14:33:16.746Z,34.07
2022-09-01T14:35:46.195Z,34.45
2022-09-01T14:38:13.798Z,34.58
2022-09-01T14:40:41.449Z,34.34
2022-09-01T14:43:10.426Z,33.57
2022-09-01T14:45:37.717Z,33.42
2022-09-01T14:48:04.312Z,33.34
2022-09-01T14:50:32.550Z,32.68
2022-09-01T14:53:01.084Z,32.68
2022-09-01T14:55:30.318Z,31.60
2022-09-01T14:57:57.862Z,31.44
2022-09-01T15:00:25.555Z,30.87
2022-09-01T15:02:53.883Z,30.61
2022-09-01T15:05:20.959Z,30.38
2022-09-01T15:07:47.558Z,30.43
2022-09-01T15:10:25.333Z,30.61
2022-09-01T15:12:53.883Z,30.95
2022-09-01T15:15:20.540Z,31.05
2022-09-01T15:17:46.994Z,31.31
2022-09-01T15:20:32.172Z,31.52
2022-09-01T15:22:58.724Z,31.23
2022-09-01T15:25:25.576Z,31.11
2022-09-01T15:27:52.038Z,31.49
2022-09-01T15:30:19.708Z,31.49
2022-09-01T15:32:48.895Z,31.15
2022-09-01T15:35:16.948Z,31.25
2022-09-01T15:37:45.530Z,30.90
2022-09-01T15:40:12.774Z,30.76
2022-09-01T15:42:39.746Z,30.30
2022-09-01T15:45:11.746Z,29.37
2022-09-01T15:47:39.582Z,29.01
2022-09-01T15:50:11.808Z,28.93
2022-09-01T15:53:08.533Z,27.65
2022-09-01T15:55:43.576Z,28.77
2022-09-01T15:58:12.026Z,29.52
2022-09-01T16:00:39.541Z,29.58
2022-09-01T16:03:08.055Z,30.00
2022-09-01T16:05:37.385Z,30.05
2022-09-01T16:08:09.572Z,30.59
2022-09-01T16:10:39.940Z,30.57
2022-09-01T16:13:07.098Z,30.69
2022-09-01T16:15:35.228Z,30.51
2022-09-01T16:18:22.171Z,30.00
2022-09-01T16:21:05.717Z,30.91
2022-09-01T16:23:45.184Z,31.20
2022-09-01T16:26:12.203Z,31.48
2022-09-01T16:28:38.968Z,31.14
2022-09-01T16:31:13.478Z,31.53
2022-09-01T16:33:47.420Z,31.50
2022-09-01T16:36:23.093Z,32.17
2022-09-01T16:39:03.581Z,32.18
2022-09-01T16:41:59.517Z,32.41
2022-09-01T16:44:44.079Z,32.64
2022-09-01T16:47:34.364Z,32.53
2022-09-01T16:50:10.342Z,32.95
2022-09-01T16:52:43.547Z,32.96
2022-09-01T16:55:25.847Z,32.88
2022-09-01T16:58:09.276Z,33.64
2022-09-01T17:00:45.256Z,34.16
2022-09-01T17:03:19.318Z,34.31
2022-09-01T17:06:01.833Z,34.47
2022-09-01T17:08:31.860Z,34.74
2022-09-01T17:11:18.920Z,34.85
2022-09-01T17:13:51.170Z,34.60
2022-09-01T17:16:29.913Z,34.31
2022-09-01T17:19:04.837Z,34.33
2022-09-01T17:21:37.942Z,34.37
2022-09-01T17:24:18.398Z,34.39
2022-09-01T17:26:47.735Z,34.50
2022-09-01T17:29:23.196Z,34.37
2022-09-01T17:32:08.231Z,34.36
2022-09-01T17:34:43.715Z,34.69
2022-09-01T17:37:29.076Z,34.58
2022-09-01T17:40:15.688Z,35.27
2022-09-01T17:42:55.006Z,36.48
2022-09-01T17:45:29.604Z,37.07
2022-09-01T17:48:21.321Z,37.96
2022-09-01T17:51:20.193Z,39.13
2022-09-01T17:54:06.155Z,38.70
2022-09-01T17:56:57.030Z,39.42
2022-09-01T17:59:41.187Z,39.62
2022-09-01T18:02:20.202Z,41.15
2022-09-01T18:05:07.986Z,40.25
2022-09-01T18:07:52.716Z,40.46
2022-09-01T18:10:39.444Z,40.38
2022-09-01T18:13:10.648Z,40.74
2022-09-01T18:15:52.071Z,42.46
2022-09-01T18:18:19.467Z,42.16
2022-09-01T18:20:48.593Z,42.12
2022-09-01T18:23:19.445Z,43.07
2022-09-01T18:25:51.128Z,42.99
2022-09-01T18:28:17.636Z,43.18
2022-09-01T18:31:01.607Z,45.39
2022-09-01T18:34:05.864Z,45.24
2022-09-01T18:36:57.893Z,45.36
2022-09-01T18:39:24.245Z,44.64
2022-09-01T18:42:15.305Z,45.87
2022-09-01T18:44:58.502Z,45.96
2022-09-01T18:47:37.162Z,46.06
2022-09-01T18:50:14.689Z,45.49
2022-09-01T18:53:09.271Z,46.39
2022-09-01T18:55:38.922Z,45.57
2022-09-01T18:58:10.787Z,46.01
2022-09-01T19:00:56.876Z,46.65
2022-09-01T19:03:39.799Z,46.67
2022-09-01T19:06:19.175Z,46.13
2022-09-01T19:08:53.772Z,46.56
2022-09-01T19:11:23.105Z,46.37
2022-09-01T19:14:06.294Z,46.67
2022-09-01T19:17:03.669Z,47.21
2022-09-01T19:19:57.503Z,47.65
2022-09-01T19:22:36.519Z,47.06
2022-09-01T19:25:26.194Z,47.05
2022-09-01T19:28:36.144Z,47.46
2022-09-01T19:31:13.453Z,47.77
2022-09-01T19:33:48.547Z,47.62
2022-09-01T19:36:21.849Z,47.22
2022-09-01T19:38:48.533Z,47.12
2022-09-01T19:41:23.524Z,47.94
2022-09-01T19:44:00.577Z,47.72
2022-09-01T19:46:40.914Z,48.18
2022-09-01T19:49:22.222Z,48.14
2022-09-01T19:52:02.509Z,47.93
2022-09-01T19:54:45.557Z,48.35
2022-09-01T19:57:18.068Z,48.27
2022-09-01T19:59:57.683Z,48.76
2022-09-01T20:02:32.744Z,48.68
2022-09-01T20:05:09.055Z,48.92
2022-09-01T20:07:41.699Z,48.82
2022-09-01T20:10:21.856Z,48.51
2022-09-01T20:12:54.871Z,48.14
2022-09-01T20:15:30.562Z,48.06
2022-09-01T20:18:05.684Z,48.11
2022-09-01T20:20:43.389Z,48.11
2022-09-01T20:23:28.399Z,48.20
2022-09-01T20:26:01.597Z,48.54
2022-09-01T20:28:41.199Z,49.26
2022-09-01T20:31:17.331Z,48.52
2022-09-01T20:33:50.788Z,48.50
2022-09-01T20:36:36.624Z,48.01
2022-09-01T20:39:33.343Z,48.47
2022-09-01T20:42:06.013Z,48.39
2022-09-01T20:44:53.598Z,47.34
2022-09-01T20:47:25.157Z,47.62
2022-09-01T20:49:51.605Z,46.52
2022-09-01T20:52:27.031Z,46.22
2022-09-01T20:55:00.078Z,45.30
2022-09-01T20:57:47.802Z,45.40
2022-09-01T21:00:22.881Z,45.37
2022-09-01T21:02:49.288Z,45.27
2022-09-01T21:05:34.057Z,44.71
2022-09-01T21:08:27.901Z,43.76
2022-09-01T21:10:58.859Z,44.36
2022-09-01T21:13:33.916Z,44.04
2022-09-01T21:16:45.151Z,43.66
2022-09-01T21:19:39.396Z,44.09
2022-09-01T21:22:11.257Z,44.08
2022-09-01T21:24:39.117Z,43.98
2022-09-01T21:27:16.126Z,43.94
2022-09-01T21:30:03.972Z,43.49
2022-09-01T21:32:33.652Z,43.84
2022-09-01T21:35:00.942Z,43.44
2022-09-01T21:37:28.506Z,43.60
2022-09-01T21:39:56.047Z,43.25
2022-09-01T21:42:27.885Z,43.58
2022-09-01T21:44:55.941Z,43.42
2022-09-01T21:47:27.230Z,43.21
2022-09-01T21:49:54.609Z,43.35
2022-09-01T21:52:21.150Z,43.30
2022-09-01T21:54:48.412Z,43.35
2022-09-01T21:57:14.923Z,43.27
2022-09-01T21:59:45.751Z,43.07
2022-09-01T22:02:12.434Z,43.36
2022-09-01T22:04:39.090Z,43.35
2022-09-01T22:07:08.080Z,43.45
2022-09-01T22:09:40.803Z,43.11
2022-09-01T22:12:12.218Z,43.47
2022-09-01T22:14:44.119Z,43.07
2022-09-01T22:17:10.952Z,42.97
2022-09-01T22:20:05.743Z,43.44
2022-09-01T22:22:36.168Z,43.53
2022-09-01T22:25:34.979Z,43.43
2022-09-01T22:28:07.871Z,43.46
2022-09-01T22:30:54.451Z,44.13
2022-09-01T22:33:23.795Z,44.29
2022-09-01T22:35:53.288Z,44.01
2022-09-01T22:38:21.200Z,43.81
2022-09-01T22:40:55.070Z,43.29
2022-09-01T22:43:25.616Z,43.60
2022-09-01T22:45:52.086Z,43.92
2022-09-01T22:48:20.941Z,43.73
2022-09-01T22:50:48.628Z,43.80
2022-09-01T22:53:16.775Z,44.50
2022-09-01T22:55:46.745Z,44.96
2022-09-01T22:58:13.372Z,44.85
2022-09-01T23:00:45.025Z,44.26
2022-09-01T23:03:11.592Z,44.81
2022-09-01T23:05:37.979Z,45.12
2022-09-01T23:08:04.551Z,45.64
2022-09-01T23:10:30.985Z,45.55
2022-09-01T23:12:57.459Z,46.11
2022-09-01T23:15:23.912Z,46.20
2022-09-01T23:17:50.318Z,46.53
2022-09-01T23:20:16.939Z,46.27
2022-09-01T23:22:45.112Z,47.06
2022-09-01T23:25:14.327Z,46.86
2022-09-01T23:27:41.182Z,46.82
2022-09-01T23:30:10.413Z,47.72
2022-09-01T23:32:37.204Z,48.10
2022-09-01T23:35:04.650Z,48.94
2022-09-01T23:37:31.412Z,49.25
2022-09-01T23:39:58.451Z,49.88
2022-09-01T23:42:25.155Z,50.09
2022-09-01T23:44:51.643Z,50.64
2022-09-01T23:47:18.085Z,50.38
2022-09-01T23:49:44.518Z,50.97
2022-09-01T23:52:10.984Z,51.53
2022-09-01T23:54:37.618Z,51.85
2022-09-01T23:57:04.222Z,52.38
2022-09-01T23:59:30.629Z,52.61
